Latest Weather Observations for Clermont Airport

IDQ60801

Issued at 12:32 pm EST Wednesday 29 July 2015 (issued every 30 minutes, with the page automatically refreshed every 10 minutes)

About weather observations | Map of weather stations | Latest weather observations for QLD | Other Formats
Station Details ID: 035124 Name: CLERMONT AIRPORT Lat: -22.78 Lon: 147.62 Height: 270.27 m
Data from the previous 72 hours. | See also: Recent months at Clermont Airport
Date/Time
EST
Temp
°C
App
Temp
°C
Dew
Point
Rel
Hum
%
Delta-T
°C
Wind Press
QNH
hPa
Press
MSL
hPa
Rain
since 9 am
mm
Dir
 
Spd
km/h
Gust
km/h
Spd
kts
Gust
kts
29/12:30pm 20.2 15.6 3.9 34 7.9 SE 17 28 9 15 1027.0 1026.7 0.0
29/12:00pm 20.1 16.0 4.2 35 7.7 ESE 15 26 8 14 1027.7 1027.4 0.0
29/11:30am 19.5 14.7 4.4 37 7.4 SE 19 28 10 15 1028.2 1028.0 0.0
29/11:00am 18.2 13.8 4.7 41 6.5 ESE 17 28 9 15 1028.8 1028.6 0.0
29/10:30am 17.2 12.8 4.5 43 6.1 ESE 17 22 9 12 1029.1 1028.9 0.0
29/10:00am 15.4 11.0 2.6 42 5.8 SE 15 22 8 12 1029.7 1029.4 0.0
29/09:30am 13.4 9.0 0.1 40 5.6 SE 13 22 7 12 1029.9 1029.6 0.0
29/09:00am 12.2 7.5 -1.7 38 5.5 ESE 13 20 7 11 1029.7 1029.4 0.0
29/08:30am 11.5 7.5 -2.3 38 5.4 SE 9 17 5 9 1029.8 1029.5 0.0
29/08:00am 10.2 6.5 -3.1 39 5.0 SSE 7 13 4 7 1029.8 1029.5 0.0
29/07:30am 8.9 4.8 -3.0 43 4.4 SSE 9 17 5 9 1029.9 1029.6 0.0
29/07:00am 7.5 4.0 -3.1 47 3.9 SSE 6 11 3 6 1029.4 1029.2 0.0
29/06:30am 6.7 3.0 -3.2 49 3.6 S 7 11 4 6 1029.0 1028.8 0.0
29/06:00am 6.0 2.2 -3.4 51 3.3 S 7 9 4 5 1028.7 1028.5 0.0
29/05:30am 6.0 2.4 -3.6 50 3.4 S 6 7 3 4 1028.4 1028.2 0.0
29/05:00am 7.0 3.8 -3.2 48 3.7 SE 4 6 2 3 1028.2 1028.0 0.0
29/04:30am 7.6 4.0 -3.3 46 4.0 SE 6 11 3 6 1028.1 1027.9 0.0
29/04:00am 7.7 4.2 -3.2 46 4.0 SSE 6 9 3 5 1028.1 1027.9 0.0
29/03:30am 7.8 4.6 -3.1 46 4.0 SE 4 7 2 4 1028.0 1027.8 0.0
29/03:00am 8.4 5.2 -3.4 43 4.3 SSE 4 7 2 4 1028.1 1027.9 0.0
29/02:30am 9.2 5.5 -3.3 41 4.7 SE 7 13 4 7 1028.1 1027.9 0.0
29/02:00am 9.6 5.8 -3.7 39 4.9 SSE 7 11 4 6 1028.2 1028.0 0.0
29/01:30am 10.1 6.3 -3.9 37 5.2 SSE 7 11 4 6 1028.2 1028.0 0.0
29/01:00am 10.6 6.4 -3.8 36 5.4 SSE 9 15 5 8 1028.4 1028.2 0.0
29/12:30am 10.7 6.9 -3.7 36 5.4 SSE 7 13 4 7 1028.3 1028.1 0.0
29/12:00am 10.8 7.0 -4.0 35 5.5 SSE 7 13 4 7 1028.3 1028.1 0.0
 
Date/Time
EST
Temp
°C
App
Temp
°C
Dew
Point
Rel
Hum
%
Delta-T
°C
Wind Press
QNH
hPa
Press
MSL
hPa
Rain
since 9 am
mm
Dir
 
Spd
km/h
Gust
km/h
Spd
kts
Gust
kts
28/11:30pm 11.0 7.3 -4.2 34 5.7 SSE 6 9 3 5 1028.2 1028.0 0.0
28/11:00pm 12.0 8.3 -4.2 32 6.1 SSE 6 9 3 5 1028.3 1028.1 0.0
28/10:30pm 12.8 8.6 -4.3 30 6.5 SE 9 13 5 7 1028.4 1028.2 0.0
28/10:00pm 13.6 9.4 -3.6 30 6.7 SE 9 17 5 9 1028.2 1028.0 0.0
28/09:30pm 13.4 9.3 -2.9 32 6.5 SE 9 17 5 9 1028.1 1027.9 0.0
28/09:29pm 13.2 9.1 -2.7 33 6.3 SE 9 17 5 9 1028.1 1027.9 0.0
28/09:00pm 8.2 4.8 -5.6 37 4.8 E 4 7 2 4 1028.0 1027.8 0.0
28/08:30pm 12.6 9.4 -3.6 32 6.2 SSE 4 6 2 3 1027.9 1027.6 0.0
28/08:00pm 13.4 9.7 -4.2 29 6.7 SSE 6 6 3 3 1027.5 1027.2 0.0
28/07:30pm 14.5 11.2 -4.2 27 7.2 S 4 6 2 3 1027.3 1027.0 0.0
28/07:00pm 15.6 11.9 -4.3 25 7.8 S 6 7 3 4 1027.0 1026.7 0.0
28/06:30pm 16.9 13.0 -4.3 23 8.4 SSE 7 11 4 6 1026.6 1026.3 0.0
28/06:00pm 18.0 14.1 -4.6 21 9.0 SSE 7 13 4 7 1026.4 1026.1 0.0
28/05:30pm 19.1 14.1 -4.4 20 9.6 SE 13 20 7 11 1026.1 1025.8 0.0
28/05:00pm 19.8 14.8 -4.5 19 9.9 SSE 13 20 7 11 1026.0 1025.7 0.0
28/04:30pm 20.3 14.9 -4.8 18 10.2 SSE 15 24 8 13 1025.7 1025.5 0.0
28/04:00pm 20.9 15.5 -4.3 18 10.4 SSE 15 26 8 14 1025.5 1025.3 0.0
28/03:30pm 20.3 15.1 -2.7 21 9.8 SE 15 22 8 12 1025.4 1025.2 0.0
28/03:00pm 20.9 15.3 -2.9 20 10.1 SE 17 28 9 15 1025.5 1025.3 0.0
28/02:30pm 20.4 14.5 -2.0 22 9.7 SSE 19 28 10 15 1025.7 1025.5 0.0
28/02:00pm 20.3 15.3 -1.5 23 9.4 SSE 15 22 8 12 1025.9 1025.6 0.0
28/01:30pm 19.4 13.7 -1.1 25 8.9 SSE 19 30 10 16 1026.2 1025.9 0.0
28/01:00pm 19.2 14.3 -0.7 26 8.7 SSE 15 28 8 15 1026.8 1026.5 0.0
28/12:30pm 18.5 13.6 -0.3 28 8.3 SE 15 26 8 14 1027.4 1027.1 0.0
28/12:00pm 17.4 12.1 -0.3 30 7.7 SE 17 28 9 15 1028.0 1027.8 0.0
28/11:30am 17.0 11.8 0.2 32 7.4 SSE 17 32 9 17 1028.6 1028.4 0.0
28/11:00am 16.8 11.7 0.9 34 7.0 SE 17 33 9 18 1029.1 1028.9 0.0
28/10:30am 15.4 9.9 0.8 37 6.4 SE 19 32 10 17 1029.4 1029.2 0.0
28/10:00am 14.0 8.0 1.3 42 5.5 SSE 22 32 12 17 1029.7 1029.4 0.0
28/09:30am 12.7 7.4 2.0 48 4.7 SSE 19 30 10 16 1029.8 1029.5 0.0
28/09:00am 12.4 6.9 2.0 49 4.5 SSE 20 35 11 19 1029.7 1029.4 0.0
28/08:30am 11.9 6.7 2.6 53 4.1 SSE 19 28 10 15 1029.3 1029.1 0.0
28/08:00am 11.9 7.1 2.4 52 4.1 SSE 17 28 9 15 1029.0 1028.8 0.0
28/07:30am 12.2 7.0 2.6 52 4.2 SSE 19 30 10 16 1028.7 1028.5 0.0
28/07:00am 12.1 7.7 2.8 53 4.1 SE 15 24 8 13 1028.2 1028.0 0.0
28/06:30am 12.4 7.7 3.4 54 4.1 SSE 17 30 9 16 1027.9 1027.6 0.0
28/06:00am 12.8 9.4 4.0 55 4.0 SSE 11 22 6 12 1027.6 1027.3 0.0
28/05:30am 13.1 8.2 4.3 55 4.1 SSE 19 32 10 17 1027.3 1027.0 0.0
28/05:00am 13.1 8.7 4.5 56 4.0 SSE 17 32 9 17 1026.9 1026.6 0.0
28/04:30am 13.3 8.9 4.5 55 4.1 SSE 17 26 9 14 1026.5 1026.2 0.0
28/04:00am 13.3 9.2 4.5 55 4.1 SSE 15 26 8 14 1026.2 1025.9 0.0
28/03:30am 13.6 9.2 4.5 54 4.2 SSE 17 32 9 17 1026.1 1025.8 0.0
28/03:00am 13.9 9.5 4.5 53 4.4 SSE 17 28 9 15 1026.4 1026.1 0.0
28/02:30am 14.2 10.5 4.2 51 4.7 SSE 13 22 7 12 1026.2 1025.9 0.0
28/02:00am 14.6 10.8 4.0 49 4.9 SSE 13 20 7 11 1026.4 1026.1 0.0
28/01:30am 15.2 10.7 4.0 47 5.2 SSE 17 26 9 14 1026.6 1026.3 0.0
28/01:00am 15.7 11.2 4.1 46 5.4 SE 17 30 9 16 1026.6 1026.3 0.0
28/12:30am 16.2 12.0 3.9 44 5.8 SSE 15 28 8 15 1026.5 1026.2 0.0
28/12:00am 16.7 11.8 4.1 43 5.9 SE 19 28 10 15 1026.4 1026.1 0.0
 
Date/Time
EST
Temp
°C
App
Temp
°C
Dew
Point
Rel
Hum
%
Delta-T
°C
Wind Press
QNH
hPa
Press
MSL
hPa
Rain
since 9 am
mm
Dir
 
Spd
km/h
Gust
km/h
Spd
kts
Gust
kts
27/11:30pm 17.1 13.0 4.4 43 6.1 SSE 15 28 8 15 1026.4 1026.1 0.0
27/11:00pm 17.6 13.8 3.9 40 6.5 SSE 13 20 7 11 1026.5 1026.2 0.0
27/10:30pm 18.5 13.9 3.9 38 7.0 SSE 17 26 9 14 1026.4 1026.1 0.0
27/10:00pm 18.8 15.0 3.8 37 7.1 SE 13 22 7 12 1026.2 1025.9 0.0
27/09:30pm 19.7 15.2 4.2 36 7.5 SSE 17 24 9 13 1025.9 1025.6 0.0
27/09:00pm 20.3 17.0 4.8 36 7.6 SSE 11 20 6 11 1025.6 1025.4 0.0
27/08:30pm 20.8 17.2 4.8 35 7.9 SSE 13 24 7 13 1025.5 1025.3 0.0
27/08:00pm 21.5 17.9 5.0 34 8.2 SE 13 22 7 12 1025.1 1024.9 0.0
27/07:30pm 22.1 18.6 5.5 34 8.4 SE 13 19 7 10 1024.6 1024.3 0.0
27/07:00pm 22.8 19.7 5.7 33 8.7 SE 11 17 6 9 1024.2 1023.9 0.0
27/06:30pm 23.4 20.7 5.8 32 9.0 SE 9 13 5 7 1023.4 1023.1 0.0
27/06:00pm 24.3 21.7 6.1 31 9.4 SSE 9 15 5 8 1022.8 1022.5 0.0
27/05:30pm 25.3 22.0 6.5 30 9.9 SSE 13 20 7 11 1022.4 1022.1 0.0
27/05:00pm 26.1 23.2 6.7 29 10.3 SSE 11 15 6 8 1022.0 1021.7 0.0
27/04:30pm 26.6 23.7 6.6 28 10.6 SSE 11 19 6 10 1021.6 1021.4 0.0
27/04:00pm 27.2 23.6 6.6 27 10.9 SE 15 26 8 14 1021.2 1020.9 0.0
27/03:30pm 27.5 24.4 7.4 28 10.9 SE 13 24 7 13 1021.0 1020.7 0.0
27/03:00pm 27.6 24.3 8.0 29 10.7 SSE 15 30 8 16 1021.0 1020.7 0.0
27/02:30pm 26.9 24.3 7.9 30 10.3 SSE 11 19 6 10 1021.2 1020.9 0.0
27/02:00pm 26.7 23.4 8.2 31 10.1 S 15 24 8 13 1021.6 1021.4 0.0
27/01:30pm 26.1 23.6 8.1 32 9.8 SSE 11 20 6 11 1022.2 1021.9 0.0
27/01:00pm 25.9 23.2 8.8 34 9.4 SSE 13 20 7 11 1022.7 1022.4 0.0
27/12:30pm 25.5 22.5 9.3 36 9.0 SSE 15 22 8 12 1023.2 1022.9 0.0
27/12:00pm 24.6 21.6 9.3 38 8.4 SSE 15 26 8 14 1023.6 1023.3 0.0
27/11:30am 23.8 21.1 9.0 39 8.1 SE 13 22 7 12 1024.2 1023.9 0.0
27/11:00am 23.4 19.9 8.7 39 7.9 SE 17 24 9 13 1024.9 1024.7 0.0
27/10:30am 22.5 18.7 9.0 42 7.3 SE 19 28 10 15 1025.4 1025.2 0.0
27/10:00am 22.1 18.4 9.3 44 6.9 SE 19 30 10 16 1025.9 1025.6 0.0
27/09:30am 21.1 18.1 9.4 47 6.3 SE 15 24 8 13 1026.0 1025.7 0.0
27/09:00am 20.3 17.2 10.4 53 5.4 SSE 17 26 9 14 1025.9 1025.6 0.0
27/08:30am 19.4 16.2 9.9 54 5.1 SE 17 24 9 13 1025.9 1025.6 0.0
27/08:00am 18.2 16.0 9.5 57 4.6 SSE 11 17 6 9 1025.4 1025.2 0.0
27/07:30am 18.1 16.5 10.2 60 4.3 S 9 13 5 7 1025.3 1025.1 0.0
27/07:00am 17.6 16.3 10.0 61 4.1 S 7 9 4 5 1024.9 1024.7 0.0
27/06:30am 17.6 15.5 9.8 60 4.2 S 11 15 6 8 1024.4 1024.1 0.0
27/06:00am 18.0 15.6 9.9 59 4.3 S 13 19 7 10 1024.0 1023.7 0.0
27/05:30am 18.1 16.0 9.7 58 4.5 SSW 11 17 6 9 1023.5 1023.2 0.0
27/05:00am 18.2 16.9 9.8 58 4.5 S 7 13 4 7 1023.2 1022.9 0.0
27/04:30am 18.8 17.5 10.1 57 4.7 S 7 11 4 6 1023.0 1022.7 0.0
27/04:00am 19.2 17.5 9.7 54 5.1 S 9 15 5 8 1022.7 1022.4 0.0
27/03:30am 19.4 17.6 9.6 53 5.3 SSW 9 11 5 6 1022.8 1022.5 0.0
27/03:00am 19.8 18.1 9.7 52 5.4 S 9 11 5 6 1022.8 1022.5 0.0
27/02:30am 20.6 18.9 9.8 50 5.9 SSE 9 13 5 7 1022.9 1022.6 0.0
27/02:00am 20.4 19.0 9.6 50 5.8 S 7 11 4 6 1022.8 1022.5 0.0
27/01:30am 21.2 19.9 10.1 49 6.1 SSE 7 13 4 7 1022.8 1022.5 0.0
27/01:00am 21.1 19.9 10.3 50 5.9 SSE 7 11 4 6 1022.8 1022.5 0.0
27/12:30am 21.6 20.5 10.7 50 6.1 S 7 11 4 6 1022.8 1022.5 0.0
27/12:00am 22.1 21.2 11.5 51 6.0 SSE 7 13 4 7 1022.7 1022.4 0.0
 
Date/Time
EST
Temp
°C
App
Temp
°C
Dew
Point
Rel
Hum
%
Delta-T
°C
Wind Press
QNH
hPa
Press
MSL
hPa
Rain
since 9 am
mm
Dir
 
Spd
km/h
Gust
km/h
Spd
kts
Gust
kts
26/11:30pm 21.0 20.7 13.2 61 4.5 SSE 7 9 4 5 1022.5 1022.2 0.0
26/11:00pm 19.0 18.7 11.3 61 4.2 SSW 4 6 2 3 1022.5 1022.2 0.0
26/10:30pm 18.8 19.3 11.6 63 4.0 CALM 0 6 0 3 1022.4 1022.1 0.0
26/10:00pm 18.9 19.4 11.5 62 4.1 CALM 0 0 0 0 1022.1 1021.8 0.0
26/09:30pm 18.8 19.2 11.1 61 4.2 CALM 0 0 0 0 1021.7 1021.5 0.0
26/09:00pm 19.4 19.9 11.7 61 4.3 CALM 0 0 0 0 1021.5 1021.2 0.0
26/08:30pm 19.9 20.3 11.4 58 4.7 CALM 0 2 0 1 1021.3 1021.0 0.0
26/08:00pm 21.2 21.2 12.3 57 5.1 SW 4 6 2 3 1021.0 1020.7 0.0
26/07:30pm 22.9 22.8 12.2 51 6.1 WSW 4 6 2 3 1020.6 1020.3 0.0
26/07:00pm 23.4 23.2 11.8 48 6.6 WSW 4 4 2 2 1020.3 1020.0 0.0
26/06:30pm 26.1 26.0 12.2 42 8.1 WSW 4 4 2 2 1019.8 1019.5 0.0
26/06:00pm 27.8 27.3 12.2 38 9.1 SW 6 7 3 4 1019.4 1019.1 0.0
26/05:30pm 29.2 28.2 12.2 35 10.0 SW 9 13 5 7 1018.9 1018.6 0.0
26/05:00pm 30.5 29.7 12.9 34 10.5 SW 9 15 5 8 1018.7 1018.4 0.0
26/04:30pm 31.3 31.5 13.1 33 11.0 W 4 15 2 8 1018.3 1017.9 0.0
26/04:00pm 30.9 30.9 13.7 35 10.4 SSE 6 9 3 5 1018.1 1017.7 0.0
26/03:30pm 29.9 29.8 13.2 36 10.0 W 6 13 3 7 1018.1 1017.7 0.0
26/03:00pm 30.6 30.3 13.4 35 10.4 WSW 7 11 4 6 1018.1 1017.7 0.0
26/02:30pm 30.7 30.1 13.5 35 10.4 NW 9 13 5 7 1018.3 1017.9 0.0
26/02:00pm 30.2 29.7 13.9 37 9.9 NW 9 19 5 10 1018.7 1018.4 0.0
26/01:30pm 29.7 29.7 14.3 39 9.4 NW 7 15 4 8 1019.0 1018.7 0.0
26/01:00pm 28.9 28.5 15.1 43 8.5 N 11 17 6 9 1019.5 1019.2 0.0

Other Formats:

Comma delimited format used in spreadsheet applications
http://www.bom.gov.au/fwo/IDQ60801/IDQ60801.94395.axf

JavaScript Object Notation format (JSON) in row-major order
http://www.bom.gov.au/fwo/IDQ60801/IDQ60801.94395.json